sensor_id;sensor_type;location;lat;lon;timestamp;temperature;humidity
9201;DHT22;4635;48.686;9.008;2023-03-01T00:01:50;-1.70;99.90
9201;DHT22;4635;48.686;9.008;2023-03-01T00:04:25;-1.80;99.80
9201;DHT22;4635;48.686;9.008;2023-03-01T00:06:57;-1.80;99.80
9201;DHT22;4635;48.686;9.008;2023-03-01T00:09:29;-1.80;99.90
9201;DHT22;4635;48.686;9.008;2023-03-01T00:12:01;-1.90;99.90
9201;DHT22;4635;48.686;9.008;2023-03-01T00:14:31;-1.90;99.90
9201;DHT22;4635;48.686;9.008;2023-03-01T00:17:12;-2.00;99.90
9201;DHT22;4635;48.686;9.008;2023-03-01T00:19:44;-2.00;99.90
9201;DHT22;4635;48.686;9.008;2023-03-01T00:22:13;-2.10;99.90
9201;DHT22;4635;48.686;9.008;2023-03-01T00:24:45;-2.10;99.90
9201;DHT22;4635;48.686;9.008;2023-03-01T00:27:20;-2.00;99.90
9201;DHT22;4635;48.686;9.008;2023-03-01T00:29:52;-2.00;99.90
9201;DHT22;4635;48.686;9.008;2023-03-01T00:32:21;-2.00;99.90
9201;DHT22;4635;48.686;9.008;2023-03-01T00:34:57;-2.10;99.90
9201;DHT22;4635;48.686;9.008;2023-03-01T00:37:27;-2.10;99.90
9201;DHT22;4635;48.686;9.008;2023-03-01T00:40:08;-2.10;99.90
9201;DHT22;4635;48.686;9.008;2023-03-01T00:42:37;-2.20;99.90
9201;DHT22;4635;48.686;9.008;2023-03-01T00:45:08;-2.20;99.90
9201;DHT22;4635;48.686;9.008;2023-03-01T00:47:40;-2.20;99.90
9201;DHT22;4635;48.686;9.008;2023-03-01T00:50:13;-2.20;99.90
9201;DHT22;4635;48.686;9.008;2023-03-01T00:52:42;-2.20;99.90
9201;DHT22;4635;48.686;9.008;2023-03-01T00:55:13;-2.20;99.90
9201;DHT22;4635;48.686;9.008;2023-03-01T00:57:41;-2.10;99.90
9201;DHT22;4635;48.686;9.008;2023-03-01T01:00:12;-2.10;99.90
9201;DHT22;4635;48.686;9.008;2023-03-01T01:02:42;-2.20;99.90
9201;DHT22;4635;48.686;9.008;2023-03-01T01:05:13;-2.20;99.90
9201;DHT22;4635;48.686;9.008;2023-03-01T01:07:47;-2.20;99.90
9201;DHT22;4635;48.686;9.008;2023-03-01T01:10:19;-2.30;99.90
9201;DHT22;4635;48.686;9.008;2023-03-01T01:12:53;-2.40;99.90
9201;DHT22;4635;48.686;9.008;2023-03-01T01:15:21;-2.40;99.90
9201;DHT22;4635;48.686;9.008;2023-03-01T01:17:51;-2.40;99.90
9201;DHT22;4635;48.686;9.008;2023-03-01T01:20:20;-2.40;99.90
9201;DHT22;4635;48.686;9.008;2023-03-01T01:22:49;-2.40;99.90
9201;DHT22;4635;48.686;9.008;2023-03-01T01:25:30;-2.40;99.90
9201;DHT22;4635;48.686;9.008;2023-03-01T01:28:03;-2.40;99.90
9201;DHT22;4635;48.686;9.008;2023-03-01T01:30:32;-2.50;99.90
9201;DHT22;4635;48.686;9.008;2023-03-01T01:33:05;-2.40;99.90
9201;DHT22;4635;48.686;9.008;2023-03-01T01:35:34;-2.40;99.90
9201;DHT22;4635;48.686;9.008;2023-03-01T01:38:06;-2.40;99.90
9201;DHT22;4635;48.686;9.008;2023-03-01T01:40:44;-2.30;99.90
9201;DHT22;4635;48.686;9.008;2023-03-01T01:43:20;-2.30;99.90
9201;DHT22;4635;48.686;9.008;2023-03-01T01:45:51;-2.30;99.90
9201;DHT22;4635;48.686;9.008;2023-03-01T01:48:21;-2.30;99.90
9201;DHT22;4635;48.686;9.008;2023-03-01T01:50:54;-2.40;99.90
9201;DHT22;4635;48.686;9.008;2023-03-01T01:53:24;-2.40;99.90
9201;DHT22;4635;48.686;9.008;2023-03-01T01:55:58;-2.50;99.90
9201;DHT22;4635;48.686;9.008;2023-03-01T01:58:32;-2.50;99.90
9201;DHT22;4635;48.686;9.008;2023-03-01T02:01:03;-2.50;99.90
9201;DHT22;4635;48.686;9.008;2023-03-01T02:03:33;-2.50;99.90
9201;DHT22;4635;48.686;9.008;2023-03-01T02:06:12;-2.50;99.90
9201;DHT22;4635;48.686;9.008;2023-03-01T02:08:41;-2.50;99.90
9201;DHT22;4635;48.686;9.008;2023-03-01T02:11:14;-2.60;99.90
9201;DHT22;4635;48.686;9.008;2023-03-01T02:13:48;-2.60;99.90
9201;DHT22;4635;48.686;9.008;2023-03-01T02:16:20;-2.60;99.90
9201;DHT22;4635;48.686;9.008;2023-03-01T02:18:52;-2.60;99.90
9201;DHT22;4635;48.686;9.008;2023-03-01T02:21:31;-2.50;99.90
9201;DHT22;4635;48.686;9.008;2023-03-01T02:24:04;-2.30;99.90
9201;DHT22;4635;48.686;9.008;2023-03-01T02:26:52;-2.10;99.90
9201;DHT22;4635;48.686;9.008;2023-03-01T02:29:29;-2.00;99.90
9201;DHT22;4635;48.686;9.008;2023-03-01T02:32:01;-2.00;99.90
9201;DHT22;4635;48.686;9.008;2023-03-01T02:34:31;-2.00;99.90
9201;DHT22;4635;48.686;9.008;2023-03-01T02:37:04;-1.90;99.90
9201;DHT22;4635;48.686;9.008;2023-03-01T02:39:36;-1.90;99.90
9201;DHT22;4635;48.686;9.008;2023-03-01T02:42:12;-1.90;99.90
9201;DHT22;4635;48.686;9.008;2023-03-01T02:47:42;-1.80;99.90
9201;DHT22;4635;48.686;9.008;2023-03-01T02:50:15;-1.80;99.90
9201;DHT22;4635;48.686;9.008;2023-03-01T02:52:48;-1.80;99.90
9201;DHT22;4635;48.686;9.008;2023-03-01T02:55:39;-1.90;99.90
9201;DHT22;4635;48.686;9.008;2023-03-01T02:58:12;-2.00;99.90
9201;DHT22;4635;48.686;9.008;2023-03-01T03:00:47;-2.00;99.90
9201;DHT22;4635;48.686;9.008;2023-03-01T03:03:25;-2.00;99.90
9201;DHT22;4635;48.686;9.008;2023-03-01T03:05:56;-2.00;99.90
9201;DHT22;4635;48.686;9.008;2023-03-01T03:08:26;-1.90;99.90
9201;DHT22;4635;48.686;9.008;2023-03-01T03:10:59;-1.90;99.90
9201;DHT22;4635;48.686;9.008;2023-03-01T03:13:29;-1.90;99.90
9201;DHT22;4635;48.686;9.008;2023-03-01T03:15:59;-1.80;99.90
9201;DHT22;4635;48.686;9.008;2023-03-01T03:18:32;-1.60;99.90
9201;DHT22;4635;48.686;9.008;2023-03-01T03:21:04;-1.60;99.90
9201;DHT22;4635;48.686;9.008;2023-03-01T03:23:38;-1.60;99.90
9201;DHT22;4635;48.686;9.008;2023-03-01T03:26:10;-1.60;99.90
9201;DHT22;4635;48.686;9.008;2023-03-01T03:28:44;-1.60;99.90
9201;DHT22;4635;48.686;9.008;2023-03-01T03:31:23;-1.60;99.90
9201;DHT22;4635;48.686;9.008;2023-03-01T03:33:55;-1.60;99.90
9201;DHT22;4635;48.686;9.008;2023-03-01T03:36:25;-1.60;99.90
9201;DHT22;4635;48.686;9.008;2023-03-01T03:38:54;-1.60;99.90
9201;DHT22;4635;48.686;9.008;2023-03-01T03:41:24;-1.60;99.90
9201;DHT22;4635;48.686;9.008;2023-03-01T03:43:55;-1.80;99.90
9201;DHT22;4635;48.686;9.008;2023-03-01T03:46:24;-1.90;99.90
9201;DHT22;4635;48.686;9.008;2023-03-01T03:49:01;-1.90;99.90
9201;DHT22;4635;48.686;9.008;2023-03-01T03:51:30;-1.80;99.90
9201;DHT22;4635;48.686;9.008;2023-03-01T03:54:01;-1.80;99.90
9201;DHT22;4635;48.686;9.008;2023-03-01T03:56:37;-1.80;99.90
9201;DHT22;4635;48.686;9.008;2023-03-01T03:59:08;-1.70;99.90
9201;DHT22;4635;48.686;9.008;2023-03-01T04:01:43;-1.70;99.90
9201;DHT22;4635;48.686;9.008;2023-03-01T04:07:04;-1.50;99.90
9201;DHT22;4635;48.686;9.008;2023-03-01T04:09:35;-1.70;99.90
9201;DHT22;4635;48.686;9.008;2023-03-01T04:12:04;-1.70;99.90
9201;DHT22;4635;48.686;9.008;2023-03-01T04:14:46;-1.80;99.90
9201;DHT22;4635;48.686;9.008;2023-03-01T04:17:24;-1.80;99.90
9201;DHT22;4635;48.686;9.008;2023-03-01T04:19:54;-1.70;99.90
9201;DHT22;4635;48.686;9.008;2023-03-01T04:22:31;-1.60;99.90
9201;DHT22;4635;48.686;9.008;2023-03-01T04:25:18;-1.50;99.90
9201;DHT22;4635;48.686;9.008;2023-03-01T04:27:51;-1.50;99.90
9201;DHT22;4635;48.686;9.008;2023-03-01T04:30:24;-1.50;99.90
9201;DHT22;4635;48.686;9.008;2023-03-01T04:32:57;-1.50;99.90
9201;DHT22;4635;48.686;9.008;2023-03-01T04:35:26;-1.50;99.90
9201;DHT22;4635;48.686;9.008;2023-03-01T04:38:00;-1.50;99.90
9201;DHT22;4635;48.686;9.008;2023-03-01T04:40:32;-1.40;99.90
9201;DHT22;4635;48.686;9.008;2023-03-01T04:43:04;-1.40;99.90
9201;DHT22;4635;48.686;9.008;2023-03-01T04:45:33;-1.40;99.90
9201;DHT22;4635;48.686;9.008;2023-03-01T04:48:04;-1.40;99.90
9201;DHT22;4635;48.686;9.008;2023-03-01T04:50:38;-1.30;99.90
9201;DHT22;4635;48.686;9.008;2023-03-01T04:53:11;-1.30;99.90
9201;DHT22;4635;48.686;9.008;2023-03-01T04:55:48;-1.30;99.90
9201;DHT22;4635;48.686;9.008;2023-03-01T04:58:18;-1.40;99.90
9201;DHT22;4635;48.686;9.008;2023-03-01T05:00:49;-1.40;99.90
9201;DHT22;4635;48.686;9.008;2023-03-01T05:03:24;-1.40;99.90
9201;DHT22;4635;48.686;9.008;2023-03-01T05:05:58;-1.40;99.90
9201;DHT22;4635;48.686;9.008;2023-03-01T05:08:43;-1.40;99.90
9201;DHT22;4635;48.686;9.008;2023-03-01T05:11:13;-1.40;99.90
9201;DHT22;4635;48.686;9.008;2023-03-01T05:13:44;-1.40;99.90
9201;DHT22;4635;48.686;9.008;2023-03-01T05:16:13;-1.40;99.90
9201;DHT22;4635;48.686;9.008;2023-03-01T05:18:46;-1.40;99.90
9201;DHT22;4635;48.686;9.008;2023-03-01T05:21:24;-1.30;99.90
9201;DHT22;4635;48.686;9.008;2023-03-01T05:24:01;-1.30;99.90
9201;DHT22;4635;48.686;9.008;2023-03-01T05:32:45;-1.30;99.90
9201;DHT22;4635;48.686;9.008;2023-03-01T05:35:19;-1.30;99.90
9201;DHT22;4635;48.686;9.008;2023-03-01T05:37:54;-1.30;99.90
9201;DHT22;4635;48.686;9.008;2023-03-01T05:40:39;-1.30;99.90
9201;DHT22;4635;48.686;9.008;2023-03-01T05:43:13;-1.30;99.90
9201;DHT22;4635;48.686;9.008;2023-03-01T05:45:53;-1.40;99.90
9201;DHT22;4635;48.686;9.008;2023-03-01T05:50:52;-1.30;99.90
9201;DHT22;4635;48.686;9.008;2023-03-01T05:53:23;-1.30;99.90
9201;DHT22;4635;48.686;9.008;2023-03-01T05:56:09;-1.20;99.90
9201;DHT22;4635;48.686;9.008;2023-03-01T05:59:14;-1.30;99.90
9201;DHT22;4635;48.686;9.008;2023-03-01T06:01:46;-1.30;99.90
9201;DHT22;4635;48.686;9.008;2023-03-01T06:04:30;-1.30;99.90
9201;DHT22;4635;48.686;9.008;2023-03-01T06:07:13;-1.30;99.90
9201;DHT22;4635;48.686;9.008;2023-03-01T06:09:43;-1.30;99.90
9201;DHT22;4635;48.686;9.008;2023-03-01T06:12:25;-1.30;99.90
9201;DHT22;4635;48.686;9.008;2023-03-01T06:15:10;-1.20;99.90
9201;DHT22;4635;48.686;9.008;2023-03-01T06:17:46;-1.10;99.90
9201;DHT22;4635;48.686;9.008;2023-03-01T06:20:28;-1.00;99.90
9201;DHT22;4635;48.686;9.008;2023-03-01T06:23:20;-1.00;99.90
9201;DHT22;4635;48.686;9.008;2023-03-01T06:44:15;-0.90;99.90
9201;DHT22;4635;48.686;9.008;2023-03-01T06:46:49;-0.90;99.90
9201;DHT22;4635;48.686;9.008;2023-03-01T06:49:28;-0.90;99.90
9201;DHT22;4635;48.686;9.008;2023-03-01T06:52:10;-0.90;99.90
9201;DHT22;4635;48.686;9.008;2023-03-01T06:54:52;-0.80;99.90
9201;DHT22;4635;48.686;9.008;2023-03-01T06:57:27;-0.70;99.50
9201;DHT22;4635;48.686;9.008;2023-03-01T07:00:00;-0.70;98.70
9201;DHT22;4635;48.686;9.008;2023-03-01T07:02:37;-0.70;99.30
9201;DHT22;4635;48.686;9.008;2023-03-01T07:05:34;-0.40;95.10
9201;DHT22;4635;48.686;9.008;2023-03-01T07:08:07;-0.40;86.40
9201;DHT22;4635;48.686;9.008;2023-03-01T07:11:00;-0.50;92.50
9201;DHT22;4635;48.686;9.008;2023-03-01T07:14:02;-0.80;99.00
9201;DHT22;4635;48.686;9.008;2023-03-01T07:16:52;-0.90;99.90
9201;DHT22;4635;48.686;9.008;2023-03-01T07:19:38;-0.90;99.90
9201;DHT22;4635;48.686;9.008;2023-03-01T07:22:16;-0.90;99.90
9201;DHT22;4635;48.686;9.008;2023-03-01T07:24:59;-0.90;99.90
9201;DHT22;4635;48.686;9.008;2023-03-01T07:27:51;-0.90;99.90
9201;DHT22;4635;48.686;9.008;2023-03-01T07:37:42;-0.90;99.30
9201;DHT22;4635;48.686;9.008;2023-03-01T07:40:18;-0.60;97.50
9201;DHT22;4635;48.686;9.008;2023-03-01T07:46:37;-0.50;95.20
9201;DHT22;4635;48.686;9.008;2023-03-01T07:49:13;-0.60;95.30
9201;DHT22;4635;48.686;9.008;2023-03-01T07:52:09;-0.40;96.70
9201;DHT22;4635;48.686;9.008;2023-03-01T08:01:34;1.60;34.40
9201;DHT22;4635;48.686;9.008;2023-03-01T08:04:27;2.10;24.40
9201;DHT22;4635;48.686;9.008;2023-03-01T08:07:21;2.10;16.70
9201;DHT22;4635;48.686;9.008;2023-03-01T10:45:32;5.80;1.00
9201;DHT22;4635;48.686;9.008;2023-03-01T10:52:18;6.50;1.00
9201;DHT22;4635;48.686;9.008;2023-03-01T16:11:29;5.30;1.00
9201;DHT22;4635;48.686;9.008;2023-03-01T16:14:09;5.30;1.00
9201;DHT22;4635;48.686;9.008;2023-03-01T16:16:56;5.30;1.00
9201;DHT22;4635;48.686;9.008;2023-03-01T16:19:43;5.30;1.00
9201;DHT22;4635;48.686;9.008;2023-03-01T16:22:30;5.20;1.00
9201;DHT22;4635;48.686;9.008;2023-03-01T16:25:24;5.20;1.00
9201;DHT22;4635;48.686;9.008;2023-03-01T16:37:33;5.00;1.00
9201;DHT22;4635;48.686;9.008;2023-03-01T16:43:38;4.90;1.00
9201;DHT22;4635;48.686;9.008;2023-03-01T16:46:30;4.80;1.00
9201;DHT22;4635;48.686;9.008;2023-03-01T16:49:26;4.80;1.00
9201;DHT22;4635;48.686;9.008;2023-03-01T16:52:06;4.80;1.00
9201;DHT22;4635;48.686;9.008;2023-03-01T16:57:50;4.80;1.00
9201;DHT22;4635;48.686;9.008;2023-03-01T17:00:48;4.70;1.00
9201;DHT22;4635;48.686;9.008;2023-03-01T17:03:21;4.60;1.00
9201;DHT22;4635;48.686;9.008;2023-03-01T17:06:02;4.50;1.00
9201;DHT22;4635;48.686;9.008;2023-03-01T17:09:01;4.50;1.00
9201;DHT22;4635;48.686;9.008;2023-03-01T17:11:47;4.40;1.00
9201;DHT22;4635;48.686;9.008;2023-03-01T17:23:27;4.30;1.00
9201;DHT22;4635;48.686;9.008;2023-03-01T17:26:01;4.10;1.00
9201;DHT22;4635;48.686;9.008;2023-03-01T17:34:34;4.10;1.00
9201;DHT22;4635;48.686;9.008;2023-03-01T17:37:28;4.00;1.00
9201;DHT22;4635;48.686;9.008;2023-03-01T17:40:17;3.90;1.00
9201;DHT22;4635;48.686;9.008;2023-03-01T17:42:54;4.00;1.00
9201;DHT22;4635;48.686;9.008;2023-03-01T17:45:37;3.90;1.00
9201;DHT22;4635;48.686;9.008;2023-03-01T17:48:19;3.90;1.00
9201;DHT22;4635;48.686;9.008;2023-03-01T17:51:10;3.90;1.00
9201;DHT22;4635;48.686;9.008;2023-03-01T17:57:00;3.80;1.00
9201;DHT22;4635;48.686;9.008;2023-03-01T17:59:41;3.70;1.00
9201;DHT22;4635;48.686;9.008;2023-03-01T18:02:20;3.70;1.00
9201;DHT22;4635;48.686;9.008;2023-03-01T18:05:03;3.60;1.00
9201;DHT22;4635;48.686;9.008;2023-03-01T18:08:01;3.50;1.00
9201;DHT22;4635;48.686;9.008;2023-03-01T18:10:43;3.50;1.00
9201;DHT22;4635;48.686;9.008;2023-03-01T18:13:36;3.50;1.00
9201;DHT22;4635;48.686;9.008;2023-03-01T18:16:14;3.50;1.00
9201;DHT22;4635;48.686;9.008;2023-03-01T18:19:01;3.40;1.00
9201;DHT22;4635;48.686;9.008;2023-03-01T18:21:46;3.40;1.00
9201;DHT22;4635;48.686;9.008;2023-03-01T18:24:23;3.40;1.00
9201;DHT22;4635;48.686;9.008;2023-03-01T18:26:53;3.50;1.00
9201;DHT22;4635;48.686;9.008;2023-03-01T18:29:34;3.30;1.00
9201;DHT22;4635;48.686;9.008;2023-03-01T18:32:24;3.30;1.00
9201;DHT22;4635;48.686;9.008;2023-03-01T18:35:07;3.20;1.00
9201;DHT22;4635;48.686;9.008;2023-03-01T18:37:52;3.20;1.00
9201;DHT22;4635;48.686;9.008;2023-03-01T18:40:21;3.10;1.00
9201;DHT22;4635;48.686;9.008;2023-03-01T18:43:07;3.10;1.00
9201;DHT22;4635;48.686;9.008;2023-03-01T18:45:41;3.00;1.00
9201;DHT22;4635;48.686;9.008;2023-03-01T18:48:18;3.00;1.00
9201;DHT22;4635;48.686;9.008;2023-03-01T18:51:05;3.00;1.00
9201;DHT22;4635;48.686;9.008;2023-03-01T18:54:57;2.90;2.00
9201;DHT22;4635;48.686;9.008;2023-03-01T18:56:42;2.90;3.40
9201;DHT22;4635;48.686;9.008;2023-03-01T18:59:20;2.90;3.50
9201;DHT22;4635;48.686;9.008;2023-03-01T19:02:09;2.90;3.50
9201;DHT22;4635;48.686;9.008;2023-03-01T19:04:55;2.80;4.30
9201;DHT22;4635;48.686;9.008;2023-03-01T19:07:32;2.80;5.60
9201;DHT22;4635;48.686;9.008;2023-03-01T19:10:14;2.70;6.60
9201;DHT22;4635;48.686;9.008;2023-03-01T19:12:49;2.70;8.00
9201;DHT22;4635;48.686;9.008;2023-03-01T19:15:21;2.70;7.90
9201;DHT22;4635;48.686;9.008;2023-03-01T19:17:57;2.70;8.60
9201;DHT22;4635;48.686;9.008;2023-03-01T19:20:43;2.60;9.00
9201;DHT22;4635;48.686;9.008;2023-03-01T19:23:21;2.60;11.30
9201;DHT22;4635;48.686;9.008;2023-03-01T19:26:07;2.50;13.00
9201;DHT22;4635;48.686;9.008;2023-03-01T19:28:45;2.50;14.30
9201;DHT22;4635;48.686;9.008;2023-03-01T19:31:25;2.50;14.70
9201;DHT22;4635;48.686;9.008;2023-03-01T19:34:31;2.40;14.70
9201;DHT22;4635;48.686;9.008;2023-03-01T19:37:06;2.40;16.10
9201;DHT22;4635;48.686;9.008;2023-03-01T19:39:37;2.40;17.50
9201;DHT22;4635;48.686;9.008;2023-03-01T19:42:07;2.30;18.30
9201;DHT22;4635;48.686;9.008;2023-03-01T19:44:42;2.30;19.40
9201;DHT22;4635;48.686;9.008;2023-03-01T19:47:25;2.20;20.20
9201;DHT22;4635;48.686;9.008;2023-03-01T19:50:01;2.20;21.60
9201;DHT22;4635;48.686;9.008;2023-03-01T19:52:48;2.20;21.90
9201;DHT22;4635;48.686;9.008;2023-03-01T19:55:31;2.10;22.50
9201;DHT22;4635;48.686;9.008;2023-03-01T19:58:15;2.10;24.10
9201;DHT22;4635;48.686;9.008;2023-03-01T20:00:58;2.10;24.80
9201;DHT22;4635;48.686;9.008;2023-03-01T20:03:36;2.00;26.70
9201;DHT22;4635;48.686;9.008;2023-03-01T20:06:14;2.00;27.60
9201;DHT22;4635;48.686;9.008;2023-03-01T20:08:44;1.90;29.90
9201;DHT22;4635;48.686;9.008;2023-03-01T20:11:16;1.90;30.70
9201;DHT22;4635;48.686;9.008;2023-03-01T20:13:56;1.90;32.10
9201;DHT22;4635;48.686;9.008;2023-03-01T20:16:38;1.90;32.30
9201;DHT22;4635;48.686;9.008;2023-03-01T20:19:10;1.80;33.60
9201;DHT22;4635;48.686;9.008;2023-03-01T20:21:44;1.80;35.50
9201;DHT22;4635;48.686;9.008;2023-03-01T20:24:23;1.70;39.40
9201;DHT22;4635;48.686;9.008;2023-03-01T20:26:59;1.70;40.90
9201;DHT22;4635;48.686;9.008;2023-03-01T20:29:34;1.70;42.20
9201;DHT22;4635;48.686;9.008;2023-03-01T20:32:10;1.70;44.70
9201;DHT22;4635;48.686;9.008;2023-03-01T20:34:42;1.80;42.60
9201;DHT22;4635;48.686;9.008;2023-03-01T20:37:17;1.80;38.60
9201;DHT22;4635;48.686;9.008;2023-03-01T20:39:58;1.90;35.90
9201;DHT22;4635;48.686;9.008;2023-03-01T20:42:30;1.90;35.60
9201;DHT22;4635;48.686;9.008;2023-03-01T20:47:57;1.80;38.70
9201;DHT22;4635;48.686;9.008;2023-03-01T20:50:33;1.70;41.50
9201;DHT22;4635;48.686;9.008;2023-03-01T20:56:20;1.60;47.40
9201;DHT22;4635;48.686;9.008;2023-03-01T20:58:55;1.60;49.60
9201;DHT22;4635;48.686;9.008;2023-03-01T21:01:37;1.40;50.40
9201;DHT22;4635;48.686;9.008;2023-03-01T21:04:19;1.40;53.00
9201;DHT22;4635;48.686;9.008;2023-03-01T21:07:01;1.40;55.20
9201;DHT22;4635;48.686;9.008;2023-03-01T21:09:33;1.30;60.50
9201;DHT22;4635;48.686;9.008;2023-03-01T21:12:07;1.20;67.50
9201;DHT22;4635;48.686;9.008;2023-03-01T21:14:50;1.20;70.70
9201;DHT22;4635;48.686;9.008;2023-03-01T21:17:22;1.30;71.30
9201;DHT22;4635;48.686;9.008;2023-03-01T21:20:05;1.40;64.20
9201;DHT22;4635;48.686;9.008;2023-03-01T21:22:36;1.40;65.90
9201;DHT22;4635;48.686;9.008;2023-03-01T21:25:07;1.30;68.30
9201;DHT22;4635;48.686;9.008;2023-03-01T21:27:42;1.30;72.30
9201;DHT22;4635;48.686;9.008;2023-03-01T21:30:17;1.20;75.80
9201;DHT22;4635;48.686;9.008;2023-03-01T21:32:49;1.20;76.10
9201;DHT22;4635;48.686;9.008;2023-03-01T21:35:35;1.30;76.30
9201;DHT22;4635;48.686;9.008;2023-03-01T21:38:17;1.20;78.40
9201;DHT22;4635;48.686;9.008;2023-03-01T21:41:02;1.20;78.40
9201;DHT22;4635;48.686;9.008;2023-03-01T21:43:35;1.20;82.10
9201;DHT22;4635;48.686;9.008;2023-03-01T21:46:06;1.20;81.70
9201;DHT22;4635;48.686;9.008;2023-03-01T21:48:52;1.20;82.20
9201;DHT22;4635;48.686;9.008;2023-03-01T21:51:25;1.20;80.10
9201;DHT22;4635;48.686;9.008;2023-03-01T21:54:02;1.20;79.80
9201;DHT22;4635;48.686;9.008;2023-03-01T21:56:54;1.10;80.60
9201;DHT22;4635;48.686;9.008;2023-03-01T21:59:32;1.10;85.10
9201;DHT22;4635;48.686;9.008;2023-03-01T22:02:02;1.10;87.50
9201;DHT22;4635;48.686;9.008;2023-03-01T22:04:35;1.10;88.20
9201;DHT22;4635;48.686;9.008;2023-03-01T22:07:09;1.10;90.00
9201;DHT22;4635;48.686;9.008;2023-03-01T22:09:43;1.00;90.30
9201;DHT22;4635;48.686;9.008;2023-03-01T22:12:13;1.00;90.70
9201;DHT22;4635;48.686;9.008;2023-03-01T22:14:51;1.00;91.40
9201;DHT22;4635;48.686;9.008;2023-03-01T22:17:20;1.00;91.50
9201;DHT22;4635;48.686;9.008;2023-03-01T22:19:49;1.00;92.10
9201;DHT22;4635;48.686;9.008;2023-03-01T22:22:24;1.00;93.10
9201;DHT22;4635;48.686;9.008;2023-03-01T22:25:00;1.00;93.70
9201;DHT22;4635;48.686;9.008;2023-03-01T22:27:31;1.00;93.00
9201;DHT22;4635;48.686;9.008;2023-03-01T22:32:53;0.90;96.80
9201;DHT22;4635;48.686;9.008;2023-03-01T22:35:30;0.90;96.30
9201;DHT22;4635;48.686;9.008;2023-03-01T22:38:00;0.80;96.30
9201;DHT22;4635;48.686;9.008;2023-03-01T22:40:30;0.90;96.00
9201;DHT22;4635;48.686;9.008;2023-03-01T22:42:59;0.80;97.20
9201;DHT22;4635;48.686;9.008;2023-03-01T22:45:32;0.80;99.40
9201;DHT22;4635;48.686;9.008;2023-03-01T22:53:47;0.70;99.90
9201;DHT22;4635;48.686;9.008;2023-03-01T22:56:20;0.70;99.90
9201;DHT22;4635;48.686;9.008;2023-03-01T22:58:51;0.70;99.90
9201;DHT22;4635;48.686;9.008;2023-03-01T23:01:25;0.70;99.90
9201;DHT22;4635;48.686;9.008;2023-03-01T23:03:57;0.70;99.90
9201;DHT22;4635;48.686;9.008;2023-03-01T23:06:37;0.70;99.90
9201;DHT22;4635;48.686;9.008;2023-03-01T23:09:19;0.80;99.90
9201;DHT22;4635;48.686;9.008;2023-03-01T23:11:55;0.80;99.90
9201;DHT22;4635;48.686;9.008;2023-03-01T23:14:25;0.70;99.90
9201;DHT22;4635;48.686;9.008;2023-03-01T23:16:57;0.80;99.90
9201;DHT22;4635;48.686;9.008;2023-03-01T23:19:28;0.80;99.90
9201;DHT22;4635;48.686;9.008;2023-03-01T23:21:59;0.80;99.90
9201;DHT22;4635;48.686;9.008;2023-03-01T23:24:37;0.80;99.90
9201;DHT22;4635;48.686;9.008;2023-03-01T23:27:06;0.70;99.90
9201;DHT22;4635;48.686;9.008;2023-03-01T23:29:38;0.70;99.90
9201;DHT22;4635;48.686;9.008;2023-03-01T23:32:10;0.80;99.90
9201;DHT22;4635;48.686;9.008;2023-03-01T23:34:44;0.80;99.90
9201;DHT22;4635;48.686;9.008;2023-03-01T23:37:13;0.80;99.90
9201;DHT22;4635;48.686;9.008;2023-03-01T23:39:48;0.80;99.90
9201;DHT22;4635;48.686;9.008;2023-03-01T23:42:20;0.80;99.90
9201;DHT22;4635;48.686;9.008;2023-03-01T23:44:50;0.70;99.90
9201;DHT22;4635;48.686;9.008;2023-03-01T23:47:22;0.80;99.90
9201;DHT22;4635;48.686;9.008;2023-03-01T23:49:53;0.90;99.90
9201;DHT22;4635;48.686;9.008;2023-03-01T23:52:24;0.80;99.90
9201;DHT22;4635;48.686;9.008;2023-03-01T23:54:57;0.90;99.90
9201;DHT22;4635;48.686;9.008;2023-03-01T23:57:27;0.90;99.90
9201;DHT22;4635;48.686;9.008;2023-03-01T23:59:56;0.80;99.90
